x

Port Wing, Wi (pngw3) Weather Station

9:40pm - Tue 26th Jul 2016 All times are CDT. -5 hours from GMT.

  • Wind
    6mph
  • Air Temp 74°f
  • Sea Pressure 1014.2mb
  • Port Wing, Wi
  • Port Wing, Wi

More Historic Weather Station data

Upgrade to MSW Pro to gain access to the past 30 days of data for over 8000 Wavebouys and Weather Stations around the globe.

Join Pro

Comparision Forecast

View Surf forecast
   
Tue 07/26 9:40pm 6
mph
1014.2mb 74f
9:30pm 2 3 mph 1013.9mb 75f
9:20pm 5 8 mph 1013.9mb 76f
9:10pm 6 7 mph 1013.9mb 74f
9:00pm 3 5 mph 1013.9mb 76f
8:40pm 5 6 mph 1013.9mb 76f
8:30pm 5 6 mph 1013.9mb 76f
8:20pm 5 6 mph 1013.9mb 76f
8:10pm 3 7 mph 1013.9mb 77f
8:00pm 5 7 mph 1013.5mb 77f
Mon 07/25 7:40pm 2 6 mph 1014.6mb 83f
7:30pm 5 6 mph 1014.2mb 83f
7:20pm 5 7 mph 1014.2mb 83f
7:10pm 5 7 mph 1014.2mb 82f
7:00pm 6 8 mph 1014.2mb 82f
6:50pm 7 8 mph 1014.2mb 82f
Sun 07/24 9:17pm 11 18 mph 1010.8mb 74f
2:40pm 14 21 mph 1009.5mb 77f
2:30pm 16 23 mph 1009.5mb 77f
2:20pm 16 23 mph 1009.1mb 76f
2:10pm 16 22 mph 1009.1mb 77f
2:00pm 13 20 mph 1009.1mb 77f
1:50pm 15 21 mph 1009.1mb 76f
1:00pm 13 22 mph - 77f
11:40am 11 16 mph 1008.5mb 74f
11:30am 11 16 mph 1008.5mb 74f
11:20am 9 15 mph 1008.5mb 74f
11:10am 9 14 mph 1008.1mb 74f
11:00am 10 13 mph 1008.1mb 73f
10:50am 10 15 mph 1008.1mb 73f
10:40am 9 16 mph 1008.1mb 73f
10:30am 13 15 mph 1008.5mb 73f
10:20am 11 17 mph 1008.5mb 73f
10:10am 13 17 mph 1008.5mb 72f
10:00am 11 17 mph 1008.5mb 72f
9:50am 9 15 mph 1008.5mb 71f
9:40am 9 15 mph 1008.5mb 70f
9:30am 10 15 mph 1008.1mb 69f
9:20am 13 20 mph 1008.1mb 68f
9:10am 14 16 mph 1008.1mb 68f
9:00am 9 11 mph 1007.8mb 67f
8:50am 5 9 mph 1008.1mb 67f
8:40am 10 13 mph 1008.1mb 65f
8:30am 6 9 mph 1007.8mb 65f
8:20am 8 13 mph 1007.8mb 72f
8:10am 8 16 mph 1007.8mb 71f
8:00am 8 11 mph 1007.8mb 71f
7:50am 9 13 mph 1007.8mb 71f
7:40am 8 11 mph 1007.8mb 70f
7:30am 8 13 mph 1007.5mb 70f
7:20am 9 13 mph 1007.5mb 69f
7:10am 8 11 mph 1007.5mb 68f
7:00am 3 6 mph 1007.5mb 67f
6:50am 2 5 mph 1007.5mb 66f
6:40am 5 6 mph 1007.5mb 65f
6:30am 5 6 mph 1007.5mb 65f
6:20am 2 3 mph 1007.1mb 64f
6:10am 3 7 mph 1006.8mb 63f
6:00am 6 7 mph 1006.8mb 65f
5:50am 2 6 mph 1006.4mb 65f
5:40am 5 10 mph 1006.4mb 65f
5:30am 9 13 mph 1006.8mb 64f
5:20am 8 9 mph 1006.8mb 64f
5:10am 2 5 mph 1006.8mb 63f
5:00am 2 6 mph 1007.1mb 61f
4:50am 5 9 mph 1007.1mb 61f
4:40am 10 14 mph 1007.5mb 62f
4:30am 9 13 mph 1007.8mb 62f
4:20am 5 14 mph 1008.1mb 63f
4:10am 13 23 mph 1007.8mb 63f
4:00am 24
mph
1007.5mb 68f
3:50am 24 41 mph 1005.8mb 73f
3:40am 22 36 mph 1005.4mb 69f
3:30am 22 38 mph 1001.4mb 65f
3:20am 25
mph
1006.8mb 63f
3:10am 11 23 mph 1008.8mb 63f
3:00am 6 14 mph 1008.5mb 63f
2:50am 3 6 mph 1008.5mb 63f
2:40am 5 6 mph 1008.5mb 62f
2:30am 3 16 mph 1008.8mb 62f
2:20am 8
mph
1008.5mb 62f
2:10am 2 3 mph 1008.5mb 62f
2:00am 2 5 mph 1008.5mb 62f
1:50am 3 5 mph 1008.8mb 63f
1:40am  -  1 mph 1008.1mb 63f
1:30am  -  2 mph 1008.5mb 63f
1:20am 1 2 mph 1008.8mb 63f
1:10am  -  2 mph 1009.5mb 63f
1:00am  -  2 mph 1009.5mb 62f
12:50am  -  5 mph 1009.1mb 62f
12:40am 3 8 mph 1009.1mb 62f
12:30am 7 8 mph 1009.1mb 62f
12:20am 7 10 mph 1009.5mb 62f
12:10am 8 11 mph 1009.5mb 62f
12:00am 10 13 mph 1009.8mb 62f
Sat 07/23 11:50pm 8 10 mph 1010.2mb 62f
11:40pm 7
mph
1009.8mb 62f
11:30pm 3 6 mph 1009.8mb 63f
11:20pm  -  3 mph 1009.8mb 63f
11:10pm 3 7 mph 1009.5mb 63f
11:00pm 5 7 mph 1009.8mb 63f
10:50pm 7 9 mph 1009.8mb 63f
10:40pm 7 8 mph 1009.8mb 63f
10:30pm 7 8 mph 1009.5mb 63f
10:20pm 7 9 mph 1009.5mb 62f
10:10pm 7 8 mph 1009.8mb 63f
10:00pm 8 9 mph 1009.8mb 63f
9:50pm 7 8 mph 1009.8mb 62f
9:40pm 8 11 mph 1010.2mb 62f
9:30pm 10 13 mph 1010.2mb 62f
9:20pm 13 15 mph 1010.2mb 62f
9:10pm 9 11 mph 1010.2mb 62f
9:00pm 11 15 mph 1010.2mb 62f
8:50pm 14 15 mph 1010.2mb 62f
8:40pm 13 17 mph 1010.2mb 62f
8:30pm 13 16 mph 1010.5mb 62f
8:20pm 11 14 mph 1010.5mb 62f
8:10pm 11 15 mph 1010.8mb 63f
8:00pm 14 15 mph 1010.8mb 63f
7:50pm 14 15 mph 1010.8mb 63f
7:40pm 14 16 mph 1011.2mb 63f
7:30pm 15 17 mph 1011.2mb 63f
7:20pm 13 20 mph 1011.2mb 63f
7:10pm 15 20 mph 1011.2mb 64f
7:00pm 15 20 mph 1011.2mb 63f
6:50pm 15 18 mph 1010.8mb 63f
6:40pm 16 20 mph 1010.8mb 63f
6:30pm 17 18 mph 1010.8mb 63f
6:20pm 15 17 mph 1011.2mb 63f
6:10pm 14 17 mph 1011.5mb 64f
6:00pm 15 18 mph 1011.2mb 63f
5:50pm 16 18 mph 1011.5mb 63f
5:40pm 16 18 mph 1011.5mb 63f
5:30pm 13 15 mph 1011.5mb 64f
5:20pm 13 15 mph 1011.9mb 64f
5:10pm 13 16 mph 1012.2mb 64f
5:00pm 13 16 mph 1012.2mb 64f
4:50pm 13 17 mph 1012.2mb 64f
4:40pm 15 17 mph 1012.5mb 64f
4:30pm 15 20 mph 1012.2mb 64f
4:20pm 17 20 mph 1012.2mb 64f
4:10pm 18 22 mph 1012.2mb 64f
4:00pm 18 22 mph 1012.2mb 64f
3:50pm 18 24 mph 1012.2mb 65f
3:40pm 21 23 mph 1012.5mb 65f
3:30pm 21 24 mph 1012.5mb 65f
3:20pm 21 24 mph 1012.5mb 65f
3:10pm 20 23 mph 1012.5mb 65f
3:00pm 18 25 mph 1012.2mb 65f
2:50pm 20 23 mph 1012.2mb 66f
2:40pm 18 22 mph 1012.2mb 66f
2:30pm 20 23 mph 1012.5mb 66f
2:20pm 20 23 mph 1012.5mb 66f
2:10pm 17 20 mph 1012.9mb 66f
2:00pm 20 21 mph 1012.9mb 65f
1:40pm 18 20 mph 1013.5mb 66f
1:30pm 17 20 mph 1013.2mb 66f
1:20pm 18 20 mph 1013.2mb 67f
1:10pm 17 20 mph 1013.2mb 67f
1:00pm 16 21 mph 1013.2mb 67f
12:50pm 16 18 mph 1013.5mb 67f